sensor_id;sensor_type;location;lat;lon;timestamp;temperature;humidity
45837;DHT22;31548;51.420;-0.040;2023-04-03T00:01:44;6.00;99.90
45837;DHT22;31548;51.420;-0.040;2023-04-03T00:04:11;5.90;99.90
45837;DHT22;31548;51.420;-0.040;2023-04-03T00:06:38;6.00;99.90
45837;DHT22;31548;51.420;-0.040;2023-04-03T00:09:06;5.90;99.90
45837;DHT22;31548;51.420;-0.040;2023-04-03T00:11:35;5.90;99.90
45837;DHT22;31548;51.420;-0.040;2023-04-03T00:14:02;5.90;99.90
45837;DHT22;31548;51.420;-0.040;2023-04-03T00:16:29;5.80;99.90
45837;DHT22;31548;51.420;-0.040;2023-04-03T00:18:57;5.80;99.90
45837;DHT22;31548;51.420;-0.040;2023-04-03T00:21:24;5.80;99.90
45837;DHT22;31548;51.420;-0.040;2023-04-03T00:23:51;5.70;99.90
45837;DHT22;31548;51.420;-0.040;2023-04-03T00:26:18;5.70;99.90
45837;DHT22;31548;51.420;-0.040;2023-04-03T00:28:45;5.60;99.90
45837;DHT22;31548;51.420;-0.040;2023-04-03T00:31:16;5.60;99.90
45837;DHT22;31548;51.420;-0.040;2023-04-03T00:33:43;5.60;99.90
45837;DHT22;31548;51.420;-0.040;2023-04-03T00:36:11;5.50;99.90
45837;DHT22;31548;51.420;-0.040;2023-04-03T00:38:39;5.60;99.90
45837;DHT22;31548;51.420;-0.040;2023-04-03T00:41:06;5.50;99.90
45837;DHT22;31548;51.420;-0.040;2023-04-03T00:43:33;5.50;99.90
45837;DHT22;31548;51.420;-0.040;2023-04-03T00:46:01;5.50;99.90
45837;DHT22;31548;51.420;-0.040;2023-04-03T00:48:36;5.50;99.90
45837;DHT22;31548;51.420;-0.040;2023-04-03T00:51:05;5.50;99.90
45837;DHT22;31548;51.420;-0.040;2023-04-03T00:53:37;5.50;99.90
45837;DHT22;31548;51.420;-0.040;2023-04-03T00:56:06;5.40;99.90
45837;DHT22;31548;51.420;-0.040;2023-04-03T00:58:35;5.40;99.90
45837;DHT22;31548;51.420;-0.040;2023-04-03T01:01:05;5.40;99.90
45837;DHT22;31548;51.420;-0.040;2023-04-03T01:03:33;5.40;99.90
45837;DHT22;31548;51.420;-0.040;2023-04-03T01:06:03;5.40;99.90
45837;DHT22;31548;51.420;-0.040;2023-04-03T01:08:30;5.30;99.90
45837;DHT22;31548;51.420;-0.040;2023-04-03T01:10:57;5.30;99.90
45837;DHT22;31548;51.420;-0.040;2023-04-03T01:13:27;5.30;99.90
45837;DHT22;31548;51.420;-0.040;2023-04-03T01:15:55;5.20;99.90
45837;DHT22;31548;51.420;-0.040;2023-04-03T01:18:23;5.20;99.90
45837;DHT22;31548;51.420;-0.040;2023-04-03T01:21:10;5.20;99.90
45837;DHT22;31548;51.420;-0.040;2023-04-03T01:26:18;5.10;99.90
45837;DHT22;31548;51.420;-0.040;2023-04-03T01:28:45;5.10;99.90
45837;DHT22;31548;51.420;-0.040;2023-04-03T01:31:15;5.00;99.90
45837;DHT22;31548;51.420;-0.040;2023-04-03T01:33:46;5.00;99.90
45837;DHT22;31548;51.420;-0.040;2023-04-03T01:36:32;5.10;99.90
45837;DHT22;31548;51.420;-0.040;2023-04-03T01:38:59;5.00;99.90
45837;DHT22;31548;51.420;-0.040;2023-04-03T01:41:28;5.00;99.90
45837;DHT22;31548;51.420;-0.040;2023-04-03T01:44:02;5.00;99.90
45837;DHT22;31548;51.420;-0.040;2023-04-03T01:46:30;4.90;99.90
45837;DHT22;31548;51.420;-0.040;2023-04-03T01:48:58;4.90;99.90
45837;DHT22;31548;51.420;-0.040;2023-04-03T01:51:25;4.90;99.90
45837;DHT22;31548;51.420;-0.040;2023-04-03T01:53:52;4.90;99.90
45837;DHT22;31548;51.420;-0.040;2023-04-03T01:56:19;4.80;99.90
45837;DHT22;31548;51.420;-0.040;2023-04-03T01:58:48;4.80;99.90
45837;DHT22;31548;51.420;-0.040;2023-04-03T02:01:16;4.90;99.90
45837;DHT22;31548;51.420;-0.040;2023-04-03T02:03:44;4.80;99.90
45837;DHT22;31548;51.420;-0.040;2023-04-03T02:06:11;4.70;99.90
45837;DHT22;31548;51.420;-0.040;2023-04-03T02:08:38;4.70;99.90
45837;DHT22;31548;51.420;-0.040;2023-04-03T02:11:06;4.70;99.90
45837;DHT22;31548;51.420;-0.040;2023-04-03T02:13:33;4.70;99.90
45837;DHT22;31548;51.420;-0.040;2023-04-03T02:16:05;4.60;99.90
45837;DHT22;31548;51.420;-0.040;2023-04-03T02:18:33;4.60;99.90
45837;DHT22;31548;51.420;-0.040;2023-04-03T02:21:00;4.60;99.90
45837;DHT22;31548;51.420;-0.040;2023-04-03T02:23:27;4.50;99.90
45837;DHT22;31548;51.420;-0.040;2023-04-03T02:26:02;4.50;99.90
45837;DHT22;31548;51.420;-0.040;2023-04-03T02:28:29;4.50;99.90
45837;DHT22;31548;51.420;-0.040;2023-04-03T02:30:56;4.50;99.90
45837;DHT22;31548;51.420;-0.040;2023-04-03T02:33:24;4.40;99.90
45837;DHT22;31548;51.420;-0.040;2023-04-03T02:35:54;4.40;99.90
45837;DHT22;31548;51.420;-0.040;2023-04-03T02:38:22;4.40;99.90
45837;DHT22;31548;51.420;-0.040;2023-04-03T02:40:50;4.40;99.90
45837;DHT22;31548;51.420;-0.040;2023-04-03T02:43:18;4.30;99.90
45837;DHT22;31548;51.420;-0.040;2023-04-03T02:45:45;4.20;99.90
45837;DHT22;31548;51.420;-0.040;2023-04-03T02:48:12;4.20;99.90
45837;DHT22;31548;51.420;-0.040;2023-04-03T02:50:41;4.20;99.90
45837;DHT22;31548;51.420;-0.040;2023-04-03T02:53:09;4.10;99.90
45837;DHT22;31548;51.420;-0.040;2023-04-03T02:55:36;4.10;99.90
45837;DHT22;31548;51.420;-0.040;2023-04-03T02:58:03;4.10;99.90
45837;DHT22;31548;51.420;-0.040;2023-04-03T03:00:31;4.00;99.90
45837;DHT22;31548;51.420;-0.040;2023-04-03T03:02:58;4.00;99.90
45837;DHT22;31548;51.420;-0.040;2023-04-03T03:05:26;4.00;99.90
45837;DHT22;31548;51.420;-0.040;2023-04-03T03:07:53;3.90;99.90
45837;DHT22;31548;51.420;-0.040;2023-04-03T03:10:22;3.90;99.90
45837;DHT22;31548;51.420;-0.040;2023-04-03T03:12:49;3.80;99.90
45837;DHT22;31548;51.420;-0.040;2023-04-03T03:15:16;3.80;99.90
45837;DHT22;31548;51.420;-0.040;2023-04-03T03:17:44;3.80;99.90
45837;DHT22;31548;51.420;-0.040;2023-04-03T03:20:12;3.70;99.90
45837;DHT22;31548;51.420;-0.040;2023-04-03T03:22:42;3.70;99.90
45837;DHT22;31548;51.420;-0.040;2023-04-03T03:25:09;3.60;99.90
45837;DHT22;31548;51.420;-0.040;2023-04-03T03:27:37;3.60;99.90
45837;DHT22;31548;51.420;-0.040;2023-04-03T03:30:05;3.70;99.90
45837;DHT22;31548;51.420;-0.040;2023-04-03T03:32:33;3.60;99.90
45837;DHT22;31548;51.420;-0.040;2023-04-03T03:35:01;3.60;99.90
45837;DHT22;31548;51.420;-0.040;2023-04-03T03:37:28;3.50;99.90
45837;DHT22;31548;51.420;-0.040;2023-04-03T03:39:56;3.50;99.90
45837;DHT22;31548;51.420;-0.040;2023-04-03T03:42:24;3.50;99.90
45837;DHT22;31548;51.420;-0.040;2023-04-03T03:44:51;3.50;99.90
45837;DHT22;31548;51.420;-0.040;2023-04-03T03:47:19;3.40;99.90
45837;DHT22;31548;51.420;-0.040;2023-04-03T03:49:47;3.40;99.90
45837;DHT22;31548;51.420;-0.040;2023-04-03T03:52:15;3.30;99.90
45837;DHT22;31548;51.420;-0.040;2023-04-03T03:54:43;3.40;99.90
45837;DHT22;31548;51.420;-0.040;2023-04-03T03:57:10;3.40;99.90
45837;DHT22;31548;51.420;-0.040;2023-04-03T03:59:38;3.40;99.90
45837;DHT22;31548;51.420;-0.040;2023-04-03T04:02:07;3.40;99.90
45837;DHT22;31548;51.420;-0.040;2023-04-03T04:04:35;3.40;99.90
45837;DHT22;31548;51.420;-0.040;2023-04-03T04:07:02;3.40;99.90
45837;DHT22;31548;51.420;-0.040;2023-04-03T04:09:32;3.30;99.90
45837;DHT22;31548;51.420;-0.040;2023-04-03T04:11:59;3.30;99.90
45837;DHT22;31548;51.420;-0.040;2023-04-03T04:14:28;3.30;99.90
45837;DHT22;31548;51.420;-0.040;2023-04-03T04:16:55;3.40;99.90
45837;DHT22;31548;51.420;-0.040;2023-04-03T04:19:25;3.40;99.90
45837;DHT22;31548;51.420;-0.040;2023-04-03T04:21:53;3.40;99.90
45837;DHT22;31548;51.420;-0.040;2023-04-03T04:24:21;3.40;99.90
45837;DHT22;31548;51.420;-0.040;2023-04-03T04:26:52;3.40;99.90
45837;DHT22;31548;51.420;-0.040;2023-04-03T04:29:20;3.50;99.90
45837;DHT22;31548;51.420;-0.040;2023-04-03T04:31:50;3.50;99.90
45837;DHT22;31548;51.420;-0.040;2023-04-03T04:34:17;3.60;99.90
45837;DHT22;31548;51.420;-0.040;2023-04-03T04:36:44;3.60;99.90
45837;DHT22;31548;51.420;-0.040;2023-04-03T04:39:12;3.60;99.90
45837;DHT22;31548;51.420;-0.040;2023-04-03T04:41:40;3.70;99.90
45837;DHT22;31548;51.420;-0.040;2023-04-03T04:44:08;3.60;99.90
45837;DHT22;31548;51.420;-0.040;2023-04-03T04:46:36;3.60;99.90
45837;DHT22;31548;51.420;-0.040;2023-04-03T04:49:04;3.60;99.90
45837;DHT22;31548;51.420;-0.040;2023-04-03T04:51:33;3.60;99.90
45837;DHT22;31548;51.420;-0.040;2023-04-03T04:54:08;3.50;99.90
45837;DHT22;31548;51.420;-0.040;2023-04-03T04:56:36;3.60;99.90
45837;DHT22;31548;51.420;-0.040;2023-04-03T04:59:03;3.60;99.90
45837;DHT22;31548;51.420;-0.040;2023-04-03T05:01:31;3.60;99.90
45837;DHT22;31548;51.420;-0.040;2023-04-03T05:04:04;3.60;99.90
45837;DHT22;31548;51.420;-0.040;2023-04-03T05:06:31;3.70;99.90
45837;DHT22;31548;51.420;-0.040;2023-04-03T05:09:01;3.60;99.90
45837;DHT22;31548;51.420;-0.040;2023-04-03T05:11:30;3.60;99.90
45837;DHT22;31548;51.420;-0.040;2023-04-03T05:13:57;3.60;99.90
45837;DHT22;31548;51.420;-0.040;2023-04-03T05:16:25;3.60;99.90
45837;DHT22;31548;51.420;-0.040;2023-04-03T05:18:54;3.70;99.90
45837;DHT22;31548;51.420;-0.040;2023-04-03T05:21:22;3.80;99.90
45837;DHT22;31548;51.420;-0.040;2023-04-03T05:23:52;3.80;99.90
45837;DHT22;31548;51.420;-0.040;2023-04-03T05:26:20;3.80;99.90
45837;DHT22;31548;51.420;-0.040;2023-04-03T05:28:49;3.90;99.90
45837;DHT22;31548;51.420;-0.040;2023-04-03T05:31:17;3.90;99.90
45837;DHT22;31548;51.420;-0.040;2023-04-03T05:33:44;3.90;99.90
45837;DHT22;31548;51.420;-0.040;2023-04-03T05:36:16;3.90;99.90
45837;DHT22;31548;51.420;-0.040;2023-04-03T05:38:47;3.90;99.90
45837;DHT22;31548;51.420;-0.040;2023-04-03T05:41:15;4.00;99.90
45837;DHT22;31548;51.420;-0.040;2023-04-03T05:43:44;4.00;99.90
45837;DHT22;31548;51.420;-0.040;2023-04-03T05:46:14;4.10;99.90
45837;DHT22;31548;51.420;-0.040;2023-04-03T05:48:44;4.10;99.90
45837;DHT22;31548;51.420;-0.040;2023-04-03T05:51:16;4.20;99.90
45837;DHT22;31548;51.420;-0.040;2023-04-03T05:53:46;4.20;99.90
45837;DHT22;31548;51.420;-0.040;2023-04-03T05:56:14;4.20;99.90
45837;DHT22;31548;51.420;-0.040;2023-04-03T05:58:42;4.20;99.90
45837;DHT22;31548;51.420;-0.040;2023-04-03T06:01:10;4.30;99.90
45837;DHT22;31548;51.420;-0.040;2023-04-03T06:03:37;4.30;99.90
45837;DHT22;31548;51.420;-0.040;2023-04-03T06:06:08;4.30;99.90
45837;DHT22;31548;51.420;-0.040;2023-04-03T06:08:35;4.40;99.90
45837;DHT22;31548;51.420;-0.040;2023-04-03T06:11:02;4.40;99.90
45837;DHT22;31548;51.420;-0.040;2023-04-03T06:13:29;4.40;99.90
45837;DHT22;31548;51.420;-0.040;2023-04-03T06:15:57;4.40;99.90
45837;DHT22;31548;51.420;-0.040;2023-04-03T06:18:24;4.40;99.90
45837;DHT22;31548;51.420;-0.040;2023-04-03T06:20:51;4.50;99.90
45837;DHT22;31548;51.420;-0.040;2023-04-03T06:23:19;4.60;99.90
45837;DHT22;31548;51.420;-0.040;2023-04-03T06:25:46;4.60;99.90
45837;DHT22;31548;51.420;-0.040;2023-04-03T06:28:14;4.60;99.90
45837;DHT22;31548;51.420;-0.040;2023-04-03T06:30:41;4.70;99.90
45837;DHT22;31548;51.420;-0.040;2023-04-03T06:33:08;4.70;99.90
45837;DHT22;31548;51.420;-0.040;2023-04-03T06:35:36;4.80;99.90
45837;DHT22;31548;51.420;-0.040;2023-04-03T06:38:05;4.80;99.90
45837;DHT22;31548;51.420;-0.040;2023-04-03T06:40:36;4.90;99.90
45837;DHT22;31548;51.420;-0.040;2023-04-03T06:43:03;4.90;99.90
45837;DHT22;31548;51.420;-0.040;2023-04-03T06:45:32;5.00;99.90
45837;DHT22;31548;51.420;-0.040;2023-04-03T06:47:59;5.10;99.90
45837;DHT22;31548;51.420;-0.040;2023-04-03T06:50:26;5.10;99.90
45837;DHT22;31548;51.420;-0.040;2023-04-03T06:52:54;5.20;99.90
45837;DHT22;31548;51.420;-0.040;2023-04-03T06:55:21;5.20;99.90
45837;DHT22;31548;51.420;-0.040;2023-04-03T06:57:48;5.30;99.90
45837;DHT22;31548;51.420;-0.040;2023-04-03T07:00:16;5.30;99.90
45837;DHT22;31548;51.420;-0.040;2023-04-03T07:02:43;5.30;99.90
45837;DHT22;31548;51.420;-0.040;2023-04-03T07:05:11;5.40;99.90
45837;DHT22;31548;51.420;-0.040;2023-04-03T07:07:38;5.50;99.90
45837;DHT22;31548;51.420;-0.040;2023-04-03T07:10:06;5.50;99.90
45837;DHT22;31548;51.420;-0.040;2023-04-03T07:12:34;5.60;99.90
45837;DHT22;31548;51.420;-0.040;2023-04-03T07:15:01;5.60;99.90
45837;DHT22;31548;51.420;-0.040;2023-04-03T07:17:29;5.70;99.90
45837;DHT22;31548;51.420;-0.040;2023-04-03T07:19:57;5.80;99.90
45837;DHT22;31548;51.420;-0.040;2023-04-03T07:22:24;5.90;99.90
45837;DHT22;31548;51.420;-0.040;2023-04-03T07:24:51;6.00;99.90
45837;DHT22;31548;51.420;-0.040;2023-04-03T07:27:19;6.10;99.90
45837;DHT22;31548;51.420;-0.040;2023-04-03T07:29:46;6.10;99.90
45837;DHT22;31548;51.420;-0.040;2023-04-03T07:32:15;6.20;99.90
45837;DHT22;31548;51.420;-0.040;2023-04-03T07:34:43;6.10;99.90
45837;DHT22;31548;51.420;-0.040;2023-04-03T07:37:10;6.10;99.90
45837;DHT22;31548;51.420;-0.040;2023-04-03T07:39:37;6.10;99.90
45837;DHT22;31548;51.420;-0.040;2023-04-03T07:42:05;6.10;99.90
45837;DHT22;31548;51.420;-0.040;2023-04-03T07:44:32;6.10;99.90
45837;DHT22;31548;51.420;-0.040;2023-04-03T07:46:59;6.10;99.90
45837;DHT22;31548;51.420;-0.040;2023-04-03T07:49:26;6.20;99.90
45837;DHT22;31548;51.420;-0.040;2023-04-03T07:51:54;6.20;99.90
45837;DHT22;31548;51.420;-0.040;2023-04-03T07:54:21;6.30;99.90
45837;DHT22;31548;51.420;-0.040;2023-04-03T07:56:48;6.50;99.90
45837;DHT22;31548;51.420;-0.040;2023-04-03T07:59:16;6.50;99.90
45837;DHT22;31548;51.420;-0.040;2023-04-03T08:01:43;6.50;99.90
45837;DHT22;31548;51.420;-0.040;2023-04-03T08:04:10;6.50;99.90
45837;DHT22;31548;51.420;-0.040;2023-04-03T08:06:38;6.50;99.90
45837;DHT22;31548;51.420;-0.040;2023-04-03T08:09:13;6.60;99.90
45837;DHT22;31548;51.420;-0.040;2023-04-03T08:11:41;6.60;99.90
45837;DHT22;31548;51.420;-0.040;2023-04-03T08:14:09;6.60;99.90
45837;DHT22;31548;51.420;-0.040;2023-04-03T08:16:43;6.60;99.90
45837;DHT22;31548;51.420;-0.040;2023-04-03T08:19:10;6.60;99.90
45837;DHT22;31548;51.420;-0.040;2023-04-03T08:21:48;6.70;99.90
45837;DHT22;31548;51.420;-0.040;2023-04-03T08:24:15;6.70;99.90
45837;DHT22;31548;51.420;-0.040;2023-04-03T08:26:43;6.70;99.90
45837;DHT22;31548;51.420;-0.040;2023-04-03T08:29:10;6.80;99.90
45837;DHT22;31548;51.420;-0.040;2023-04-03T08:31:37;6.80;99.90
45837;DHT22;31548;51.420;-0.040;2023-04-03T08:34:04;6.90;99.90
45837;DHT22;31548;51.420;-0.040;2023-04-03T08:36:32;7.00;99.90
45837;DHT22;31548;51.420;-0.040;2023-04-03T08:38:59;7.00;99.90
45837;DHT22;31548;51.420;-0.040;2023-04-03T08:47:01;7.30;99.90
45837;DHT22;31548;51.420;-0.040;2023-04-03T08:49:35;7.30;99.90
45837;DHT22;31548;51.420;-0.040;2023-04-03T08:52:05;7.40;99.90
45837;DHT22;31548;51.420;-0.040;2023-04-03T08:54:37;7.40;99.90
45837;DHT22;31548;51.420;-0.040;2023-04-03T08:57:09;7.50;99.90
45837;DHT22;31548;51.420;-0.040;2023-04-03T08:59:37;7.60;99.90
45837;DHT22;31548;51.420;-0.040;2023-04-03T09:02:14;7.70;99.90
45837;DHT22;31548;51.420;-0.040;2023-04-03T09:04:43;7.80;99.90
45837;DHT22;31548;51.420;-0.040;2023-04-03T09:07:13;7.90;99.90
45837;DHT22;31548;51.420;-0.040;2023-04-03T09:09:42;8.00;99.90
45837;DHT22;31548;51.420;-0.040;2023-04-03T09:19:41;8.40;99.90
45837;DHT22;31548;51.420;-0.040;2023-04-03T09:22:25;8.60;99.90
45837;DHT22;31548;51.420;-0.040;2023-04-03T09:25:11;8.80;99.90
45837;DHT22;31548;51.420;-0.040;2023-04-03T09:27:40;8.90;99.90
45837;DHT22;31548;51.420;-0.040;2023-04-03T09:30:14;9.00;99.90
45837;DHT22;31548;51.420;-0.040;2023-04-03T09:32:43;9.20;99.90
45837;DHT22;31548;51.420;-0.040;2023-04-03T09:35:18;9.40;99.90
45837;DHT22;31548;51.420;-0.040;2023-04-03T09:37:53;9.50;99.90
45837;DHT22;31548;51.420;-0.040;2023-04-03T09:42:52;9.70;99.90
45837;DHT22;31548;51.420;-0.040;2023-04-03T09:45:29;9.80;99.90
45837;DHT22;31548;51.420;-0.040;2023-04-03T09:48:14;9.80;99.90
45837;DHT22;31548;51.420;-0.040;2023-04-03T09:50:59;9.90;99.90
45837;DHT22;31548;51.420;-0.040;2023-04-03T09:55:54;10.20;99.90
45837;DHT22;31548;51.420;-0.040;2023-04-03T09:58:26;10.20;99.90
45837;DHT22;31548;51.420;-0.040;2023-04-03T10:00:58;10.10;99.90
45837;DHT22;31548;51.420;-0.040;2023-04-03T10:03:30;10.20;99.90
45837;DHT22;31548;51.420;-0.040;2023-04-03T10:05:59;10.20;99.90
45837;DHT22;31548;51.420;-0.040;2023-04-03T10:08:29;10.10;99.90
45837;DHT22;31548;51.420;-0.040;2023-04-03T10:11:17;10.10;99.90
45837;DHT22;31548;51.420;-0.040;2023-04-03T10:16:21;10.10;99.90
45837;DHT22;31548;51.420;-0.040;2023-04-03T10:18:57;10.10;99.90
45837;DHT22;31548;51.420;-0.040;2023-04-03T10:24:23;10.20;99.90
45837;DHT22;31548;51.420;-0.040;2023-04-03T10:26:58;10.20;99.90
45837;DHT22;31548;51.420;-0.040;2023-04-03T10:31:59;10.30;99.90
45837;DHT22;31548;51.420;-0.040;2023-04-03T10:34:30;10.30;99.90
45837;DHT22;31548;51.420;-0.040;2023-04-03T10:42:18;10.50;99.90
45837;DHT22;31548;51.420;-0.040;2023-04-03T10:48:02;10.50;99.90
45837;DHT22;31548;51.420;-0.040;2023-04-03T10:50:44;10.60;99.90
45837;DHT22;31548;51.420;-0.040;2023-04-03T10:56:04;10.90;99.90
45837;DHT22;31548;51.420;-0.040;2023-04-03T10:58:38;10.90;99.90
45837;DHT22;31548;51.420;-0.040;2023-04-03T11:01:07;10.90;99.90
45837;DHT22;31548;51.420;-0.040;2023-04-03T11:03:36;11.00;99.90
45837;DHT22;31548;51.420;-0.040;2023-04-03T11:06:09;11.00;99.90
45837;DHT22;31548;51.420;-0.040;2023-04-03T11:08:44;11.00;99.90
45837;DHT22;31548;51.420;-0.040;2023-04-03T11:11:13;11.00;99.90
45837;DHT22;31548;51.420;-0.040;2023-04-03T11:16:14;11.20;99.90
45837;DHT22;31548;51.420;-0.040;2023-04-03T11:18:49;11.30;99.90
45837;DHT22;31548;51.420;-0.040;2023-04-03T11:21:20;11.40;99.90
45837;DHT22;31548;51.420;-0.040;2023-04-03T11:23:51;11.70;99.90
45837;DHT22;31548;51.420;-0.040;2023-04-03T11:26:19;11.80;99.90
45837;DHT22;31548;51.420;-0.040;2023-04-03T11:34:49;12.40;99.90
45837;DHT22;31548;51.420;-0.040;2023-04-03T11:39:57;12.40;99.90
45837;DHT22;31548;51.420;-0.040;2023-04-03T11:42:40;12.40;99.90
45837;DHT22;31548;51.420;-0.040;2023-04-03T11:47:50;12.70;99.90
45837;DHT22;31548;51.420;-0.040;2023-04-03T11:58:04;13.20;99.90
45837;DHT22;31548;51.420;-0.040;2023-04-03T12:05:57;13.20;99.90
45837;DHT22;31548;51.420;-0.040;2023-04-03T12:08:45;13.20;99.90
45837;DHT22;31548;51.420;-0.040;2023-04-03T12:21:21;12.90;99.90
45837;DHT22;31548;51.420;-0.040;2023-04-03T12:29:25;13.20;99.90
45837;DHT22;31548;51.420;-0.040;2023-04-03T12:32:04;13.30;99.90
45837;DHT22;31548;51.420;-0.040;2023-04-03T12:34:42;13.20;99.90
45837;DHT22;31548;51.420;-0.040;2023-04-03T12:42:30;13.20;99.90
45837;DHT22;31548;51.420;-0.040;2023-04-03T12:47:36;13.00;99.90
45837;DHT22;31548;51.420;-0.040;2023-04-03T12:50:13;13.10;99.90
45837;DHT22;31548;51.420;-0.040;2023-04-03T12:52:44;13.20;99.90
45837;DHT22;31548;51.420;-0.040;2023-04-03T12:55:19;13.20;99.90
45837;DHT22;31548;51.420;-0.040;2023-04-03T12:57:47;13.20;99.90
45837;DHT22;31548;51.420;-0.040;2023-04-03T13:00:22;13.40;99.90
45837;DHT22;31548;51.420;-0.040;2023-04-03T13:02:49;13.30;99.40
45837;DHT22;31548;51.420;-0.040;2023-04-03T13:05:18;13.60;99.90
45837;DHT22;31548;51.420;-0.040;2023-04-03T13:07:49;13.70;99.90
45837;DHT22;31548;51.420;-0.040;2023-04-03T13:10:19;13.90;99.40
45837;DHT22;31548;51.420;-0.040;2023-04-03T13:15:16;14.30;98.40
45837;DHT22;31548;51.420;-0.040;2023-04-03T13:17:43;14.00;98.20
45837;DHT22;31548;51.420;-0.040;2023-04-03T13:22:52;14.30;98.70
45837;DHT22;31548;51.420;-0.040;2023-04-03T13:25:21;14.50;98.30
45837;DHT22;31548;51.420;-0.040;2023-04-03T13:27:49;14.50;98.50
45837;DHT22;31548;51.420;-0.040;2023-04-03T13:30:21;14.70;98.90
45837;DHT22;31548;51.420;-0.040;2023-04-03T13:32:49;14.80;98.40
45837;DHT22;31548;51.420;-0.040;2023-04-03T13:35:24;14.80;97.60
45837;DHT22;31548;51.420;-0.040;2023-04-03T13:37:55;15.00;97.80
45837;DHT22;31548;51.420;-0.040;2023-04-03T13:40:23;15.00;97.40
45837;DHT22;31548;51.420;-0.040;2023-04-03T13:43:04;15.00;97.60
45837;DHT22;31548;51.420;-0.040;2023-04-03T13:45:32;15.00;97.50
45837;DHT22;31548;51.420;-0.040;2023-04-03T13:48:15;15.00;97.30
45837;DHT22;31548;51.420;-0.040;2023-04-03T13:53:50;15.10;98.20
45837;DHT22;31548;51.420;-0.040;2023-04-03T13:56:19;15.10;97.10
45837;DHT22;31548;51.420;-0.040;2023-04-03T13:58:57;15.10;97.50
45837;DHT22;31548;51.420;-0.040;2023-04-03T14:01:25;15.20;96.40
45837;DHT22;31548;51.420;-0.040;2023-04-03T14:03:56;15.20;97.70
45837;DHT22;31548;51.420;-0.040;2023-04-03T14:06:24;15.20;97.20
45837;DHT22;31548;51.420;-0.040;2023-04-03T14:08:51;15.30;97.00
45837;DHT22;31548;51.420;-0.040;2023-04-03T14:11:21;15.50;97.80
45837;DHT22;31548;51.420;-0.040;2023-04-03T14:13:49;15.30;96.50
45837;DHT22;31548;51.420;-0.040;2023-04-03T14:16:21;15.40;98.40
45837;DHT22;31548;51.420;-0.040;2023-04-03T14:18:49;15.30;96.20
45837;DHT22;31548;51.420;-0.040;2023-04-03T14:21:17;15.40;96.80
45837;DHT22;31548;51.420;-0.040;2023-04-03T14:23:44;15.60;97.10
45837;DHT22;31548;51.420;-0.040;2023-04-03T14:26:13;15.70;95.80
45837;DHT22;31548;51.420;-0.040;2023-04-03T14:28:40;15.70;94.50
45837;DHT22;31548;51.420;-0.040;2023-04-03T14:31:10;15.60;95.90
45837;DHT22;31548;51.420;-0.040;2023-04-03T14:33:40;15.80;95.20
45837;DHT22;31548;51.420;-0.040;2023-04-03T14:36:14;15.80;93.80
45837;DHT22;31548;51.420;-0.040;2023-04-03T14:38:42;15.90;94.20
45837;DHT22;31548;51.420;-0.040;2023-04-03T14:41:13;16.20;94.20
45837;DHT22;31548;51.420;-0.040;2023-04-03T14:43:43;16.30;93.60
45837;DHT22;31548;51.420;-0.040;2023-04-03T14:46:12;16.10;92.60
45837;DHT22;31548;51.420;-0.040;2023-04-03T14:48:39;16.20;93.40
45837;DHT22;31548;51.420;-0.040;2023-04-03T14:51:08;16.20;93.50
45837;DHT22;31548;51.420;-0.040;2023-04-03T14:53:36;16.30;94.20
45837;DHT22;31548;51.420;-0.040;2023-04-03T14:56:10;16.70;95.20
45837;DHT22;31548;51.420;-0.040;2023-04-03T14:58:37;16.90;92.80
45837;DHT22;31548;51.420;-0.040;2023-04-03T15:01:05;17.00;91.20
45837;DHT22;31548;51.420;-0.040;2023-04-03T15:03:32;17.10;91.00
45837;DHT22;31548;51.420;-0.040;2023-04-03T15:05:59;17.30;90.40
45837;DHT22;31548;51.420;-0.040;2023-04-03T15:08:27;17.40;88.10
45837;DHT22;31548;51.420;-0.040;2023-04-03T15:10:56;17.90;89.10
45837;DHT22;31548;51.420;-0.040;2023-04-03T15:13:23;18.10;87.10
45837;DHT22;31548;51.420;-0.040;2023-04-03T15:15:51;18.00;88.00
45837;DHT22;31548;51.420;-0.040;2023-04-03T15:18:22;18.30;87.30
45837;DHT22;31548;51.420;-0.040;2023-04-03T15:20:50;18.30;86.30
45837;DHT22;31548;51.420;-0.040;2023-04-03T15:23:17;18.20;84.90
45837;DHT22;31548;51.420;-0.040;2023-04-03T15:25:46;18.50;88.50
45837;DHT22;31548;51.420;-0.040;2023-04-03T15:28:17;18.20;84.40
45837;DHT22;31548;51.420;-0.040;2023-04-03T15:30:45;18.60;85.10
45837;DHT22;31548;51.420;-0.040;2023-04-03T15:33:12;18.80;81.70
45837;DHT22;31548;51.420;-0.040;2023-04-03T15:35:39;18.50;79.70
45837;DHT22;31548;51.420;-0.040;2023-04-03T15:38:07;19.00;80.80
45837;DHT22;31548;51.420;-0.040;2023-04-03T15:40:35;19.20;83.50
45837;DHT22;31548;51.420;-0.040;2023-04-03T15:43:02;19.20;83.10
45837;DHT22;31548;51.420;-0.040;2023-04-03T15:45:29;19.30;84.00
45837;DHT22;31548;51.420;-0.040;2023-04-03T15:47:57;19.00;83.90
45837;DHT22;31548;51.420;-0.040;2023-04-03T15:50:24;19.60;86.40
45837;DHT22;31548;51.420;-0.040;2023-04-03T15:52:52;19.40;83.70
45837;DHT22;31548;51.420;-0.040;2023-04-03T15:55:21;19.00;83.00
45837;DHT22;31548;51.420;-0.040;2023-04-03T15:57:49;19.30;84.40
45837;DHT22;31548;51.420;-0.040;2023-04-03T16:00:16;19.40;85.60
45837;DHT22;31548;51.420;-0.040;2023-04-03T16:02:47;19.50;85.00
45837;DHT22;31548;51.420;-0.040;2023-04-03T16:05:15;19.30;85.60
45837;DHT22;31548;51.420;-0.040;2023-04-03T16:07:44;19.10;86.00
45837;DHT22;31548;51.420;-0.040;2023-04-03T16:10:13;19.30;87.60
45837;DHT22;31548;51.420;-0.040;2023-04-03T16:12:40;19.30;84.70
45837;DHT22;31548;51.420;-0.040;2023-04-03T16:15:08;19.50;83.30
45837;DHT22;31548;51.420;-0.040;2023-04-03T16:17:35;19.00;84.90
45837;DHT22;31548;51.420;-0.040;2023-04-03T16:20:04;19.10;82.80
45837;DHT22;31548;51.420;-0.040;2023-04-03T16:22:33;19.20;80.40
45837;DHT22;31548;51.420;-0.040;2023-04-03T16:25:00;19.70;80.40
45837;DHT22;31548;51.420;-0.040;2023-04-03T16:27:27;19.30;80.30
45837;DHT22;31548;51.420;-0.040;2023-04-03T16:29:57;19.20;80.70
45837;DHT22;31548;51.420;-0.040;2023-04-03T16:32:24;19.90;80.50
45837;DHT22;31548;51.420;-0.040;2023-04-03T16:34:53;19.80;77.40
45837;DHT22;31548;51.420;-0.040;2023-04-03T16:37:20;19.30;75.00
45837;DHT22;31548;51.420;-0.040;2023-04-03T16:39:47;19.40;76.80
45837;DHT22;31548;51.420;-0.040;2023-04-03T16:42:14;19.50;76.10
45837;DHT22;31548;51.420;-0.040;2023-04-03T16:44:42;19.40;77.60
45837;DHT22;31548;51.420;-0.040;2023-04-03T16:47:09;19.40;76.90
45837;DHT22;31548;51.420;-0.040;2023-04-03T16:49:37;19.20;77.80
45837;DHT22;31548;51.420;-0.040;2023-04-03T16:52:05;19.50;78.40
45837;DHT22;31548;51.420;-0.040;2023-04-03T16:54:32;19.80;78.20
45837;DHT22;31548;51.420;-0.040;2023-04-03T16:56:59;19.70;77.00
45837;DHT22;31548;51.420;-0.040;2023-04-03T16:59:26;19.70;77.10
45837;DHT22;31548;51.420;-0.040;2023-04-03T17:01:54;19.50;77.40
45837;DHT22;31548;51.420;-0.040;2023-04-03T17:04:21;19.60;76.10
45837;DHT22;31548;51.420;-0.040;2023-04-03T17:06:48;19.90;76.70
45837;DHT22;31548;51.420;-0.040;2023-04-03T17:09:15;19.80;75.90
45837;DHT22;31548;51.420;-0.040;2023-04-03T17:11:42;19.00;76.50
45837;DHT22;31548;51.420;-0.040;2023-04-03T17:14:12;19.00;77.30
45837;DHT22;31548;51.420;-0.040;2023-04-03T17:16:39;19.20;77.70